Time;durP1;ratioP1;P1;durP2;ratioP2;P2;SDS_P1;SDS_P2;PMS_P1;PMS_P2;Temp;Humidity;BMP_temperature;BMP_pressure;BME280_temperature;BME280_humidity;BME280_pressure;Samples;Min_cycle;Max_cycle;Signal;HPM_P1;HPM_P2
2023/05/13 00:01:42;;;;;;;11.27;8.15;;;;;;;;;;5065671;28;20052;-65
2023/05/13 00:04:09;;;;;;;12.68;7.82;;;;;;;;;;5062773;28;20044;-65
2023/05/13 00:06:35;;;;;;;11.88;8.52;;;;;;;;;;5065751;28;20059;-65
2023/05/13 00:09:01;;;;;;;11.25;8.52;;;;;;;;;;5065549;28;20119;-65
2023/05/13 00:11:27;;;;;;;11.75;7.70;;;;;;;;;;5071373;28;20036;-65
2023/05/13 00:13:54;;;;;;;10.60;7.07;;;;;;;;;;5072849;28;20436;-65
2023/05/13 00:16:22;;;;;;;17.23;7.80;;;;;;;;;;5069798;28;22052;-65
2023/05/13 00:18:50;;;;;;;12.52;8.68;;;;;;;;;;5068167;28;20523;-65
2023/05/13 00:21:16;;;;;;;12.25;7.82;;;;;;;;;;5069384;28;20379;-65
2023/05/13 00:23:42;;;;;;;12.18;8.45;;;;;;;;;;5070669;28;20039;-65
2023/05/13 00:26:08;;;;;;;11.30;8.27;;;;;;;;;;5067794;28;20053;-65
2023/05/13 00:28:35;;;;;;;12.65;9.40;;;;;;;;;;5065822;28;20052;-65
2023/05/13 00:31:01;;;;;;;12.10;8.73;;;;;;;;;;5066809;28;20044;-65
2023/05/13 00:33:27;;;;;;;15.27;9.43;;;;;;;;;;5066515;28;20060;-65
2023/05/13 00:35:53;;;;;;;15.68;10.23;;;;;;;;;;5070255;28;20036;-65
2023/05/13 00:38:19;;;;;;;13.52;10.18;;;;;;;;;;5069456;28;20052;-65
2023/05/13 00:40:46;;;;;;;28.27;11.35;;;;;;;;;;5066605;28;20188;-65
2023/05/13 00:43:13;;;;;;;17.38;10.05;;;;;;;;;;5069379;28;20732;-65
2023/05/13 00:45:40;;;;;;;17.73;11.18;;;;;;;;;;5071849;28;20048;-65
2023/05/13 00:48:07;;;;;;;14.52;10.30;;;;;;;;;;5065969;28;20048;-65
2023/05/13 00:50:33;;;;;;;13.25;10.38;;;;;;;;;;5069043;28;20048;-65
2023/05/13 00:52:59;;;;;;;16.45;10.55;;;;;;;;;;5069931;28;20058;-64
2023/05/13 00:55:25;;;;;;;19.25;11.38;;;;;;;;;;5073979;28;20036;-64
2023/05/13 00:57:52;;;;;;;15.52;10.02;;;;;;;;;;5070834;28;20178;-65
2023/05/13 01:00:18;;;;;;;13.52;9.98;;;;;;;;;;5074148;28;20231;-65
2023/05/13 01:02:52;;;;;;;15.80;10.23;;;;;;;;;;5055502;28;20055;-65
2023/05/13 01:05:25;;;;;;;17.55;10.65;;;;;;;;;;5070540;28;20079;-65
2023/05/13 01:08:01;;;;;;;15.43;10.00;;;;;;;;;;5070575;28;20126;-65
2023/05/13 01:10:34;;;;;;;16.98;10.88;;;;;;;;;;5067569;28;20074;-66
2023/05/13 01:13:03;;;;;;;14.75;9.80;;;;;;;;;;5068788;28;20087;-66
2023/05/13 01:15:31;;;;;;;20.08;10.52;;;;;;;;;;5068961;28;20063;-65
2023/05/13 01:17:57;;;;;;;15.80;10.18;;;;;;;;;;5070779;28;20330;-65
2023/05/13 01:20:24;;;;;;;18.38;10.50;;;;;;;;;;5071311;28;20044;-65
2023/05/13 01:22:50;;;;;;;15.38;10.25;;;;;;;;;;5072248;28;20164;-65
2023/05/13 01:25:16;;;;;;;13.68;10.05;;;;;;;;;;5071579;28;20048;-65
2023/05/13 01:27:42;;;;;;;13.20;10.02;;;;;;;;;;5071611;28;20068;-65
2023/05/13 01:30:09;;;;;;;15.98;10.80;;;;;;;;;;5069138;28;20139;-65
2023/05/13 01:32:36;;;;;;;16.48;10.45;;;;;;;;;;5081723;27;20048;-65
2023/05/13 01:35:02;;;;;;;14.77;10.48;;;;;;;;;;5092088;27;20047;-65
2023/05/13 01:37:29;;;;;;;16.90;10.27;;;;;;;;;;5078889;28;20062;-65
2023/05/13 01:39:55;;;;;;;13.32;9.32;;;;;;;;;;5057434;28;20044;-65
2023/05/13 01:42:23;;;;;;;13.18;9.40;;;;;;;;;;5093513;28;20153;-65
2023/05/13 01:44:51;;;;;;;15.32;9.07;;;;;;;;;;5097191;28;20040;-65
2023/05/13 01:47:17;;;;;;;13.55;9.18;;;;;;;;;;5095472;27;20488;-65
2023/05/13 01:49:43;;;;;;;17.38;9.48;;;;;;;;;;5072336;28;20043;-65
2023/05/13 01:52:09;;;;;;;14.20;9.50;;;;;;;;;;5092215;27;20048;-65
2023/05/13 01:54:35;;;;;;;16.63;8.80;;;;;;;;;;5091574;27;20078;-65
2023/05/13 01:57:02;;;;;;;16.45;9.63;;;;;;;;;;5069899;28;20044;-65
2023/05/13 01:59:28;;;;;;;14.30;9.57;;;;;;;;;;5071526;28;20440;-65
2023/05/13 02:01:54;;;;;;;14.63;9.65;;;;;;;;;;5068735;28;20040;-65
2023/05/13 02:04:20;;;;;;;14.23;9.57;;;;;;;;;;5070899;27;20522;-64
2023/05/13 02:06:47;;;;;;;12.35;8.98;;;;;;;;;;5079206;28;20092;-65
2023/05/13 02:09:13;;;;;;;14.07;10.00;;;;;;;;;;5072124;28;20056;-65
2023/05/13 02:11:39;;;;;;;15.50;9.50;;;;;;;;;;5072224;28;20036;-65
2023/05/13 02:14:06;;;;;;;16.63;9.45;;;;;;;;;;5075023;27;20130;-65
2023/05/13 02:16:32;;;;;;;12.63;8.30;;;;;;;;;;5074545;28;20359;-65
2023/05/13 02:18:58;;;;;;;13.13;8.48;;;;;;;;;;5093086;27;20060;-65
2023/05/13 02:21:24;;;;;;;14.98;9.00;;;;;;;;;;5074816;27;20040;-65
2023/05/13 02:23:51;;;;;;;15.52;8.68;;;;;;;;;;5074434;27;20379;-65
2023/05/13 02:26:17;;;;;;;17.92;9.68;;;;;;;;;;5073004;28;20070;-65
2023/05/13 02:28:43;;;;;;;11.77;8.60;;;;;;;;;;5093851;27;20112;-66
2023/05/13 02:31:09;;;;;;;15.18;8.13;;;;;;;;;;5097007;28;20513;-66
2023/05/13 02:33:35;;;;;;;12.10;9.23;;;;;;;;;;5096724;27;20498;-65
2023/05/13 02:36:02;;;;;;;13.77;9.27;;;;;;;;;;5073683;28;20418;-65
2023/05/13 02:38:28;;;;;;;12.90;8.80;;;;;;;;;;5073955;28;20048;-65
2023/05/13 02:40:54;;;;;;;12.18;8.77;;;;;;;;;;5092467;27;20108;-65
2023/05/13 02:43:22;;;;;;;13.25;10.05;;;;;;;;;;5095883;27;20394;-65
2023/05/13 02:45:48;;;;;;;16.52;10.18;;;;;;;;;;5071188;28;20071;-65
2023/05/13 02:48:14;;;;;;;13.68;10.18;;;;;;;;;;5073874;28;20051;-65
2023/05/13 02:50:41;;;;;;;17.35;11.18;;;;;;;;;;5070034;28;20164;-65
2023/05/13 02:53:07;;;;;;;14.98;11.25;;;;;;;;;;5072090;28;20149;-65
2023/05/13 02:55:33;;;;;;;13.18;11.45;;;;;;;;;;5074914;28;20050;-65
2023/05/13 02:57:59;;;;;;;16.88;11.43;;;;;;;;;;5073412;28;20044;-65
2023/05/13 03:00:26;;;;;;;15.23;11.18;;;;;;;;;;5090601;27;20501;-65
2023/05/13 03:02:52;;;;;;;17.33;10.13;;;;;;;;;;5094917;27;20039;-65
2023/05/13 03:05:18;;;;;;;15.05;11.13;;;;;;;;;;5074997;28;20078;-65
2023/05/13 03:07:44;;;;;;;14.60;10.63;;;;;;;;;;5087867;27;21707;-65
2023/05/13 03:10:10;;;;;;;15.23;10.50;;;;;;;;;;5077610;28;20499;-65
2023/05/13 03:12:36;;;;;;;15.20;10.45;;;;;;;;;;5092419;27;20708;-65
2023/05/13 03:15:03;;;;;;;13.25;10.23;;;;;;;;;;5088328;27;20166;-65
2023/05/13 03:17:30;;;;;;;16.48;11.57;;;;;;;;;;5091954;28;20472;-65
2023/05/13 03:19:57;;;;;;;17.20;10.25;;;;;;;;;;5071927;27;20072;-65
2023/05/13 03:22:23;;;;;;;17.42;10.23;;;;;;;;;;5090086;28;20051;-65
2023/05/13 03:24:49;;;;;;;15.43;9.63;;;;;;;;;;5072440;28;20048;-65
2023/05/13 03:27:15;;;;;;;14.70;9.63;;;;;;;;;;5092335;27;20092;-65
2023/05/13 03:29:41;;;;;;;19.88;9.57;;;;;;;;;;5092446;27;20078;-65
2023/05/13 03:32:07;;;;;;;15.93;8.57;;;;;;;;;;5092261;27;20047;-65
2023/05/13 03:34:35;;;;;;;11.27;8.60;;;;;;;;;;5091952;27;20048;-65
2023/05/13 03:37:01;;;;;;;13.75;8.05;;;;;;;;;;5092991;27;20036;-65
2023/05/13 03:39:27;;;;;;;12.43;8.15;;;;;;;;;;5093817;27;20042;-65
2023/05/13 03:41:53;;;;;;;12.38;8.35;;;;;;;;;;5090162;28;20043;-65
2023/05/13 03:44:19;;;;;;;11.32;7.97;;;;;;;;;;5089008;27;20036;-65
2023/05/13 03:46:46;;;;;;;15.02;8.32;;;;;;;;;;5074630;28;20165;-65
2023/05/13 03:49:12;;;;;;;13.15;8.02;;;;;;;;;;5091982;28;20063;-65
2023/05/13 03:51:38;;;;;;;11.02;7.50;;;;;;;;;;5071591;28;20051;-65
2023/05/13 03:54:05;;;;;;;13.25;7.97;;;;;;;;;;5074582;28;20078;-65
2023/05/13 03:56:31;;;;;;;11.15;7.68;;;;;;;;;;5071358;28;20077;-65
2023/05/13 03:58:57;;;;;;;14.88;7.45;;;;;;;;;;5093785;28;20517;-65
2023/05/13 04:01:23;;;;;;;13.60;8.00;;;;;;;;;;5098106;28;20445;-66
2023/05/13 04:03:49;;;;;;;13.80;7.22;;;;;;;;;;5070812;28;20147;-66
2023/05/13 04:06:15;;;;;;;11.85;7.50;;;;;;;;;;5092772;28;20502;-66
2023/05/13 04:08:42;;;;;;;12.98;8.65;;;;;;;;;;5090553;28;20036;-65
2023/05/13 04:11:08;;;;;;;11.15;7.22;;;;;;;;;;5090524;28;20036;-66
2023/05/13 04:13:35;;;;;;;10.68;7.45;;;;;;;;;;5075743;28;20052;-65
2023/05/13 04:16:02;;;;;;;11.60;8.10;;;;;;;;;;5072017;28;20047;-65
2023/05/13 04:18:29;;;;;;;13.02;9.30;;;;;;;;;;5068071;28;20044;-65
2023/05/13 04:20:56;;;;;;;12.25;8.23;;;;;;;;;;5071362;28;21081;-65
2023/05/13 04:23:22;;;;;;;15.57;9.23;;;;;;;;;;5091821;28;20483;-65
2023/05/13 04:25:51;;;;;;;12.60;9.13;;;;;;;;;;5076477;28;20047;-66
2023/05/13 04:28:18;;;;;;;12.02;9.10;;;;;;;;;;5095993;28;20510;-65
2023/05/13 04:30:44;;;;;;;14.70;8.80;;;;;;;;;;5074689;28;20127;-69
2023/05/13 04:33:10;;;;;;;12.20;9.05;;;;;;;;;;5093004;27;20081;-66
2023/05/13 04:35:37;;;;;;;11.38;8.65;;;;;;;;;;5091405;27;20051;-65
2023/05/13 04:38:04;;;;;;;15.95;8.82;;;;;;;;;;5088970;28;20044;-65
2023/05/13 04:40:30;;;;;;;10.98;8.70;;;;;;;;;;5093778;28;20036;-65
2023/05/13 04:42:56;;;;;;;15.98;9.90;;;;;;;;;;5077067;28;20218;-65
2023/05/13 04:45:23;;;;;;;11.77;8.35;;;;;;;;;;5092166;27;20090;-65
2023/05/13 04:47:49;;;;;;;13.25;8.70;;;;;;;;;;5093367;27;20052;-65
2023/05/13 04:50:16;;;;;;;10.30;7.57;;;;;;;;;;5094122;28;20398;-65
2023/05/13 04:52:43;;;;;;;11.60;7.93;;;;;;;;;;5093386;27;20071;-65
2023/05/13 04:55:09;;;;;;;14.02;7.80;;;;;;;;;;5095037;27;20063;-65
2023/05/13 04:57:36;;;;;;;14.13;8.60;;;;;;;;;;5075505;28;20130;-65
2023/05/13 05:00:03;;;;;;;14.70;8.60;;;;;;;;;;5093714;27;20120;-65
2023/05/13 05:02:29;;;;;;;14.18;8.77;;;;;;;;;;5075208;28;20096;-65
2023/05/13 05:04:55;;;;;;;14.07;8.02;;;;;;;;;;5077074;28;20906;-65
2023/05/13 05:07:22;;;;;;;10.07;7.60;;;;;;;;;;5091058;27;20152;-65
2023/05/13 05:09:48;;;;;;;13.80;7.85;;;;;;;;;;5090504;27;20044;-65
2023/05/13 05:12:15;;;;;;;11.45;7.82;;;;;;;;;;5075335;28;20039;-65
2023/05/13 05:14:41;;;;;;;12.02;7.00;;;;;;;;;;5092921;27;20130;-65
2023/05/13 05:17:07;;;;;;;13.68;7.38;;;;;;;;;;5094169;27;20050;-65
2023/05/13 05:19:33;;;;;;;10.13;6.75;;;;;;;;;;5074610;28;20116;-64
2023/05/13 05:21:59;;;;;;;11.57;7.00;;;;;;;;;;5071839;28;20467;-65
2023/05/13 05:24:25;;;;;;;14.07;7.18;;;;;;;;;;5074253;28;20044;-65
2023/05/13 05:26:52;;;;;;;13.30;6.90;;;;;;;;;;5075278;28;20423;-65
2023/05/13 05:29:18;;;;;;;11.57;6.93;;;;;;;;;;5094456;27;20044;-65
2023/05/13 05:31:44;;;;;;;11.75;7.10;;;;;;;;;;5073872;28;20482;-65
2023/05/13 05:34:11;;;;;;;16.17;8.15;;;;;;;;;;5073478;28;20062;-65
2023/05/13 05:36:37;;;;;;;13.90;7.25;;;;;;;;;;5073698;28;20048;-65
2023/05/13 05:39:03;;;;;;;12.68;7.05;;;;;;;;;;5093536;28;20040;-65
2023/05/13 05:41:29;;;;;;;10.77;7.35;;;;;;;;;;5089283;28;20150;-65
2023/05/13 05:43:56;;;;;;;10.65;6.22;;;;;;;;;;5078871;28;20407;-65
2023/05/13 05:46:22;;;;;;;11.88;7.00;;;;;;;;;;5096512;27;20149;-66
2023/05/13 05:48:48;;;;;;;10.30;6.70;;;;;;;;;;5076614;28;20035;-66
2023/05/13 05:51:14;;;;;;;13.02;6.15;;;;;;;;;;5095421;27;20486;-66
2023/05/13 05:53:41;;;;;;;14.45;6.90;;;;;;;;;;5093184;27;20044;-67
2023/05/13 05:56:07;;;;;;;11.48;6.00;;;;;;;;;;5089434;27;20070;-66
2023/05/13 05:58:34;;;;;;;10.77;6.63;;;;;;;;;;5059289;27;20039;-66
2023/05/13 06:01:00;;;;;;;10.57;6.03;;;;;;;;;;5072898;27;20459;-66
2023/05/13 06:03:27;;;;;;;12.38;5.38;;;;;;;;;;5091507;27;20126;-66
2023/05/13 06:05:54;;;;;;;8.93;5.53;;;;;;;;;;5095504;27;20484;-66
2023/05/13 06:08:20;;;;;;;9.15;5.47;;;;;;;;;;5093476;28;20031;-66
2023/05/13 06:10:46;;;;;;;8.95;5.50;;;;;;;;;;5076798;28;20135;-66
2023/05/13 06:13:12;;;;;;;12.60;5.80;;;;;;;;;;5075039;28;20051;-66
2023/05/13 06:15:39;;;;;;;13.25;6.03;;;;;;;;;;5073988;28;20059;-67
2023/05/13 06:18:05;;;;;;;11.90;5.75;;;;;;;;;;5088839;28;20043;-66
2023/05/13 06:20:32;;;;;;;8.50;4.85;;;;;;;;;;5095063;28;20059;-67
2023/05/13 06:22:58;;;;;;;10.35;5.60;;;;;;;;;;5095724;27;20115;-65
2023/05/13 06:25:24;;;;;;;13.80;5.40;;;;;;;;;;5093833;28;20040;-66
2023/05/13 06:27:51;;;;;;;11.93;5.80;;;;;;;;;;5083630;28;20127;-66
2023/05/13 06:30:17;;;;;;;11.07;6.05;;;;;;;;;;5074826;28;20047;-65
2023/05/13 06:32:43;;;;;;;12.88;5.57;;;;;;;;;;5076698;28;20134;-65
2023/05/13 06:35:09;;;;;;;9.68;5.38;;;;;;;;;;5078588;28;20538;-65
2023/05/13 06:37:35;;;;;;;8.32;5.15;;;;;;;;;;5076745;28;20044;-65
2023/05/13 06:40:01;;;;;;;9.15;5.68;;;;;;;;;;5091608;28;20415;-66
2023/05/13 06:42:28;;;;;;;10.38;4.85;;;;;;;;;;5078579;28;20511;-67
2023/05/13 06:44:54;;;;;;;8.43;5.18;;;;;;;;;;5089332;27;20455;-67
2023/05/13 06:47:20;;;;;;;10.15;5.47;;;;;;;;;;5074389;28;20135;-66
2023/05/13 06:49:46;;;;;;;8.77;4.78;;;;;;;;;;5072072;27;20101;-66
2023/05/13 06:52:12;;;;;;;12.80;5.57;;;;;;;;;;5091391;28;20055;-66
2023/05/13 06:54:39;;;;;;;8.38;5.28;;;;;;;;;;5077134;28;20518;-67
2023/05/13 06:57:06;;;;;;;17.17;5.78;;;;;;;;;;5077400;28;20040;-74
2023/05/13 06:59:32;;;;;;;14.35;6.75;;;;;;;;;;5092218;27;20177;-71
2023/05/13 07:01:58;;;;;;;8.55;5.15;;;;;;;;;;5057182;28;20130;-70
2023/05/13 07:04:24;;;;;;;9.95;4.75;;;;;;;;;;5073864;28;20050;-78
2023/05/13 07:06:51;;;;;;;9.68;5.55;;;;;;;;;;5058563;27;20445;-67
2023/05/13 07:09:17;;;;;;;10.60;5.80;;;;;;;;;;5097178;28;20534;-67
2023/05/13 07:11:43;;;;;;;11.88;6.13;;;;;;;;;;5070979;28;20134;-66
2023/05/13 07:14:09;;;;;;;9.93;5.18;;;;;;;;;;5070785;28;20040;-66
2023/05/13 07:16:35;;;;;;;11.50;6.78;;;;;;;;;;5092862;28;20040;-66
2023/05/13 07:19:01;;;;;;;17.25;7.00;;;;;;;;;;5076810;28;20100;-66
2023/05/13 07:21:29;;;;;;;11.35;6.00;;;;;;;;;;5088986;27;20654;-71
2023/05/13 07:23:55;;;;;;;10.60;5.80;;;;;;;;;;5074010;28;20044;-66
2023/05/13 07:26:21;;;;;;;11.35;5.90;;;;;;;;;;5054204;28;20075;-66
2023/05/13 07:28:47;;;;;;;12.13;5.20;;;;;;;;;;5074885;27;20444;-67
2023/05/13 07:31:13;;;;;;;10.30;5.88;;;;;;;;;;5096026;28;20032;-67
2023/05/13 07:33:40;;;;;;;8.95;5.30;;;;;;;;;;5093036;27;20059;-65
2023/05/13 07:36:06;;;;;;;15.40;6.18;;;;;;;;;;5071707;28;20080;-65
2023/05/13 07:38:33;;;;;;;8.70;4.90;;;;;;;;;;5092575;28;20073;-67
2023/05/13 07:40:59;;;;;;;12.07;6.07;;;;;;;;;;5099421;27;20065;-67
2023/05/13 07:43:26;;;;;;;11.50;5.63;;;;;;;;;;5077110;28;20143;-67
2023/05/13 07:45:53;;;;;;;10.73;5.55;;;;;;;;;;5103598;28;20066;-65
2023/05/13 07:48:19;;;;;;;10.40;5.80;;;;;;;;;;5073740;28;20048;-64
2023/05/13 07:50:45;;;;;;;8.60;5.78;;;;;;;;;;5071276;28;20546;-64
2023/05/13 07:53:12;;;;;;;9.70;5.93;;;;;;;;;;5092121;28;20502;-64
2023/05/13 07:55:38;;;;;;;8.90;6.10;;;;;;;;;;5062668;28;20075;-63
2023/05/13 07:58:05;;;;;;;9.90;5.43;;;;;;;;;;5090170;28;20109;-64
2023/05/13 08:00:31;;;;;;;11.23;6.50;;;;;;;;;;5070636;28;20059;-65
2023/05/13 08:02:57;;;;;;;9.48;5.85;;;;;;;;;;5069512;28;20143;-65
2023/05/13 08:05:23;;;;;;;11.52;6.53;;;;;;;;;;5089338;28;20072;-65
2023/05/13 08:07:50;;;;;;;7.60;5.78;;;;;;;;;;5092925;28;20039;-65
2023/05/13 08:10:16;;;;;;;10.70;5.75;;;;;;;;;;5093381;28;20047;-66
2023/05/13 08:12:43;;;;;;;10.90;6.25;;;;;;;;;;5091633;28;20059;-65
2023/05/13 08:15:10;;;;;;;12.15;5.78;;;;;;;;;;5071753;28;20126;-65
2023/05/13 08:17:37;;;;;;;10.13;6.57;;;;;;;;;;5073874;28;20050;-65
2023/05/13 08:20:03;;;;;;;12.50;6.30;;;;;;;;;;5077000;28;20071;-65
2023/05/13 08:22:29;;;;;;;12.60;7.07;;;;;;;;;;5092888;28;20387;-66
2023/05/13 08:24:55;;;;;;;10.15;5.55;;;;;;;;;;5074151;28;20127;-65
2023/05/13 08:27:21;;;;;;;8.88;5.70;;;;;;;;;;5092830;28;20044;-68
2023/05/13 08:29:48;;;;;;;8.45;5.05;;;;;;;;;;5071731;28;20052;-65
2023/05/13 08:32:14;;;;;;;12.60;5.75;;;;;;;;;;5087936;28;20052;-66
2023/05/13 08:34:40;;;;;;;9.05;6.00;;;;;;;;;;5072364;28;20100;-67
2023/05/13 08:37:06;;;;;;;12.05;5.15;;;;;;;;;;5089887;28;20047;-65
2023/05/13 08:39:33;;;;;;;7.65;4.95;;;;;;;;;;5072441;28;20146;-65
2023/05/13 08:42:01;;;;;;;10.18;5.70;;;;;;;;;;5087893;28;20054;-65
2023/05/13 08:44:28;;;;;;;8.32;5.38;;;;;;;;;;5074147;28;20063;-65
2023/05/13 08:47:05;;;;;;;7.10;5.13;;;;;;;;;;5074407;28;20097;-65
2023/05/13 08:49:32;;;;;;;10.90;6.05;;;;;;;;;;5089588;28;20093;-65
2023/05/13 08:51:58;;;;;;;11.82;5.55;;;;;;;;;;5090049;28;20052;-65
2023/05/13 08:54:25;;;;;;;11.23;5.57;;;;;;;;;;5069473;28;20048;-65
2023/05/13 08:56:51;;;;;;;9.88;5.53;;;;;;;;;;5093111;28;20039;-65
2023/05/13 08:59:17;;;;;;;9.10;4.95;;;;;;;;;;5089829;28;20131;-65
2023/05/13 09:01:44;;;;;;;8.70;5.53;;;;;;;;;;5070668;28;21705;-65
2023/05/13 09:04:10;;;;;;;12.98;5.82;;;;;;;;;;5071844;28;20185;-65
2023/05/13 09:06:36;;;;;;;7.68;5.75;;;;;;;;;;5091293;28;20038;-65
2023/05/13 09:09:04;;;;;;;11.50;4.97;;;;;;;;;;5071888;28;20050;-65
2023/05/13 09:11:32;;;;;;;8.30;5.70;;;;;;;;;;5087636;27;20051;-65
2023/05/13 09:13:59;;;;;;;8.30;5.78;;;;;;;;;;5090359;27;20454;-65
2023/05/13 09:16:27;;;;;;;11.98;5.35;;;;;;;;;;5075553;28;20325;-65
2023/05/13 09:19:00;;;;;;;8.60;6.28;;;;;;;;;;5094235;27;20043;-65
2023/05/13 09:21:28;;;;;;;14.77;5.70;;;;;;;;;;5075377;28;20122;-65
2023/05/13 09:24:02;;;;;;;10.50;5.50;;;;;;;;;;5090324;28;21297;-65
2023/05/13 09:26:28;;;;;;;;;;;;;;;;;;5078408;27;20096;-65
2023/05/13 09:29:13;;;;;;;10.00;5.53;;;;;;;;;;5074686;28;20348;-65
2023/05/13 09:31:40;;;;;;;11.35;4.88;;;;;;;;;;5076610;28;20281;-65
2023/05/13 09:34:06;;;;;;;9.88;4.78;;;;;;;;;;5073096;28;20139;-65
2023/05/13 09:36:33;;;;;;;12.43;5.22;;;;;;;;;;5068800;28;20220;-65
2023/05/13 09:38:59;;;;;;;9.10;5.07;;;;;;;;;;5072431;28;20052;-65
2023/05/13 09:41:27;;;;;;;9.73;4.97;;;;;;;;;;5070729;28;20471;-65
2023/05/13 09:43:53;;;;;;;12.27;5.45;;;;;;;;;;5068815;28;20105;-65
2023/05/13 09:46:20;;;;;;;9.85;5.30;;;;;;;;;;5072876;28;20051;-65
2023/05/13 09:48:46;;;;;;;13.95;5.50;;;;;;;;;;5076731;28;20055;-65
2023/05/13 09:51:15;;;;;;;9.60;5.35;;;;;;;;;;5071485;28;20068;-66
2023/05/13 09:53:41;;;;;;;10.50;4.90;;;;;;;;;;5071991;28;20099;-65
2023/05/13 09:56:09;;;;;;;16.83;5.15;;;;;;;;;;5070957;28;20040;-65
2023/05/13 09:58:35;;;;;;;8.40;5.20;;;;;;;;;;5073100;28;20040;-65
2023/05/13 10:01:02;;;;;;;9.07;4.72;;;;;;;;;;5072454;28;20522;-65
2023/05/13 10:03:30;;;;;;;7.75;4.60;;;;;;;;;;5070532;28;20468;-66
2023/05/13 10:05:57;;;;;;;11.70;5.53;;;;;;;;;;5070279;28;20076;-65
2023/05/13 10:08:24;;;;;;;8.55;5.05;;;;;;;;;;5072983;28;20050;-65
2023/05/13 10:10:53;;;;;;;7.22;4.88;;;;;;;;;;5069906;28;20373;-65
2023/05/13 10:13:23;;;;;;;8.25;4.75;;;;;;;;;;5069539;28;20111;-65
2023/05/13 10:15:50;;;;;;;10.98;4.90;;;;;;;;;;5072990;28;20036;-65
2023/05/13 10:18:17;;;;;;;11.77;4.63;;;;;;;;;;5070809;28;20400;-66
2023/05/13 10:20:43;;;;;;;9.60;4.18;;;;;;;;;;5070914;28;20044;-66
2023/05/13 10:23:09;;;;;;;9.82;4.97;;;;;;;;;;5070196;28;20048;-66
2023/05/13 10:25:36;;;;;;;10.20;4.80;;;;;;;;;;5075856;28;20124;-66
2023/05/13 10:28:03;;;;;;;11.43;4.00;;;;;;;;;;5073447;28;20114;-65
2023/05/13 10:30:31;;;;;;;11.32;4.32;;;;;;;;;;5075157;28;20550;-66
2023/05/13 10:33:00;;;;;;;7.40;4.68;;;;;;;;;;5083649;28;20051;-66
2023/05/13 10:35:29;;;;;;;7.82;4.38;;;;;;;;;;5091153;28;20047;-66
2023/05/13 10:38:01;;;;;;;12.38;4.78;;;;;;;;;;5055747;28;20173;-66
2023/05/13 10:40:31;;;;;;;9.32;4.50;;;;;;;;;;5092144;27;20048;-66
2023/05/13 10:43:07;;;;;;;8.00;4.88;;;;;;;;;;5091892;28;20487;-66
2023/05/13 10:45:33;;;;;;;10.63;4.57;;;;;;;;;;5090821;28;20067;-66
2023/05/13 10:48:05;;;;;;;10.00;4.07;;;;;;;;;;5095494;27;20092;-66
2023/05/13 10:50:31;;;;;;;10.50;4.45;;;;;;;;;;5090915;28;20047;-66
2023/05/13 10:52:58;;;;;;;10.63;4.45;;;;;;;;;;5088355;28;20060;-66
2023/05/13 10:55:26;;;;;;;8.77;5.10;;;;;;;;;;5072009;28;20040;-66
2023/05/13 10:58:07;;;;;;;16.20;6.10;;;;;;;;;;5090089;28;20508;-66
2023/05/13 11:00:34;;;;;;;10.52;4.60;;;;;;;;;;5090204;27;20055;-66
2023/05/13 11:03:21;;;;;;;10.07;5.43;;;;;;;;;;5089671;28;20032;-66
2023/05/13 11:05:58;;;;;;;9.00;4.97;;;;;;;;;;5089716;27;20070;-66
2023/05/13 11:08:37;;;;;;;12.63;5.20;;;;;;;;;;5073748;28;20035;-73
2023/05/13 11:11:16;;;;;;;12.32;5.20;;;;;;;;;;5080994;28;20055;-66
2023/05/13 11:13:43;;;;;;;9.13;4.72;;;;;;;;;;5073023;28;20082;-68
2023/05/13 11:16:10;;;;;;;9.68;4.95;;;;;;;;;;5091259;28;20175;-68
2023/05/13 11:18:36;;;;;;;10.07;4.78;;;;;;;;;;5095091;28;20126;-68
2023/05/13 11:21:03;;;;;;;8.05;4.50;;;;;;;;;;5092545;28;20039;-67
2023/05/13 11:23:30;;;;;;;7.43;4.75;;;;;;;;;;5096370;28;20109;-67
2023/05/13 11:26:11;;;;;;;8.30;4.35;;;;;;;;;;5070082;28;20055;-65
2023/05/13 11:28:53;;;;;;;7.30;4.80;;;;;;;;;;5093505;27;20059;-65
2023/05/13 11:31:21;;;;;;;7.88;4.20;;;;;;;;;;5091914;28;20051;-65
2023/05/13 11:34:08;;;;;;;6.82;4.35;;;;;;;;;;5091739;28;20051;-65
2023/05/13 11:36:35;;;;;;;8.98;4.53;;;;;;;;;;5092831;27;20394;-65
2023/05/13 11:39:05;;;;;;;10.48;4.32;;;;;;;;;;5092922;28;20046;-65
2023/05/13 11:41:32;;;;;;;8.73;4.70;;;;;;;;;;5075192;28;20530;-65
2023/05/13 11:44:01;;;;;;;10.68;5.22;;;;;;;;;;5094479;28;20066;-65
2023/05/13 11:46:28;;;;;;;7.57;4.82;;;;;;;;;;5091618;28;20039;-65
2023/05/13 11:48:54;;;;;;;6.72;4.43;;;;;;;;;;5073829;28;20059;-65
2023/05/13 11:51:21;;;;;;;8.32;4.10;;;;;;;;;;5073273;28;20043;-65
2023/05/13 11:53:47;;;;;;;10.68;4.50;;;;;;;;;;5089535;28;20044;-65
2023/05/13 11:56:13;;;;;;;8.30;4.68;;;;;;;;;;5091162;28;20075;-65
2023/05/13 11:58:40;;;;;;;10.95;4.35;;;;;;;;;;5092838;28;20039;-65
2023/05/13 12:01:06;;;;;;;9.05;4.47;;;;;;;;;;5073489;28;20143;-65
2023/05/13 12:03:32;;;;;;;9.15;4.50;;;;;;;;;;5089889;28;20269;-65
2023/05/13 12:06:02;;;;;;;9.82;4.28;;;;;;;;;;5091725;28;20039;-65
2023/05/13 12:08:28;;;;;;;6.70;4.60;;;;;;;;;;5087306;28;20044;-65
2023/05/13 12:10:55;;;;;;;10.38;4.90;;;;;;;;;;5096059;28;20036;-65
2023/05/13 12:13:21;;;;;;;7.43;4.85;;;;;;;;;;5101316;28;20040;-65
2023/05/13 12:15:48;;;;;;;8.82;4.90;;;;;;;;;;5093788;28;20047;-64
2023/05/13 12:18:14;;;;;;;10.98;5.85;;;;;;;;;;5091681;28;20037;-65
2023/05/13 12:20:41;;;;;;;9.05;4.47;;;;;;;;;;5098193;28;20454;-65
2023/05/13 12:23:10;;;;;;;8.65;4.25;;;;;;;;;;5093395;28;20648;-63
2023/05/13 12:25:38;;;;;;;11.85;4.88;;;;;;;;;;5092984;28;20047;-62
2023/05/13 12:28:15;;;;;;;6.45;4.43;;;;;;;;;;5095748;28;20050;-63
2023/05/13 12:30:42;;;;;;;8.23;4.88;;;;;;;;;;5089894;28;20443;-62
2023/05/13 12:33:13;;;;;;;7.85;5.28;;;;;;;;;;5087012;28;20087;-63
2023/05/13 12:35:40;;;;;;;9.93;4.70;;;;;;;;;;5095611;28;20056;-63
2023/05/13 12:38:06;;;;;;;11.73;5.00;;;;;;;;;;5090795;28;20549;-63
2023/05/13 12:40:32;;;;;;;6.82;4.95;;;;;;;;;;5090855;28;20052;-63
2023/05/13 12:42:59;;;;;;;9.25;4.68;;;;;;;;;;5073614;28;20040;-63
2023/05/13 12:45:28;;;;;;;11.05;4.43;;;;;;;;;;5095370;28;20040;-63
2023/05/13 12:47:55;;;;;;;8.00;4.43;;;;;;;;;;5079060;28;20101;-63
2023/05/13 12:50:21;;;;;;;7.13;4.15;;;;;;;;;;5075827;28;20052;-63
2023/05/13 12:52:47;;;;;;;6.43;4.60;;;;;;;;;;5094409;28;20063;-63
2023/05/13 12:55:13;;;;;;;8.20;4.78;;;;;;;;;;5095058;27;20076;-62
2023/05/13 12:57:41;;;;;;;9.02;4.95;;;;;;;;;;5093649;28;20038;-63
2023/05/13 13:00:09;;;;;;;8.27;4.82;;;;;;;;;;5097369;28;20130;-62
2023/05/13 13:02:36;;;;;;;10.00;4.32;;;;;;;;;;5093189;28;20063;-63
2023/05/13 13:05:02;;;;;;;8.60;4.10;;;;;;;;;;5091616;27;20475;-62
2023/05/13 13:07:28;;;;;;;8.50;5.03;;;;;;;;;;5080603;28;20043;-63
2023/05/13 13:09:55;;;;;;;7.72;4.20;;;;;;;;;;5092219;28;20130;-62
2023/05/13 13:12:22;;;;;;;6.63;4.28;;;;;;;;;;5093932;27;20068;-62
2023/05/13 13:14:48;;;;;;;9.27;4.43;;;;;;;;;;5075491;28;20048;-63
2023/05/13 13:17:14;;;;;;;8.48;5.35;;;;;;;;;;5094037;28;20128;-63
2023/05/13 13:19:40;;;;;;;13.02;4.60;;;;;;;;;;5098168;28;20073;-63
2023/05/13 13:22:06;;;;;;;8.75;4.43;;;;;;;;;;5077552;28;20032;-63
2023/05/13 13:24:33;;;;;;;7.07;4.38;;;;;;;;;;5090266;28;20044;-63
2023/05/13 13:26:59;;;;;;;7.05;4.15;;;;;;;;;;5079819;28;20048;-63
2023/05/13 13:29:25;;;;;;;6.72;4.13;;;;;;;;;;5072217;28;20652;-63
2023/05/13 13:31:51;;;;;;;5.85;3.65;;;;;;;;;;5073760;28;20445;-63
2023/05/13 13:34:17;;;;;;;6.97;3.47;;;;;;;;;;5098038;28;20056;-63
2023/05/13 13:36:44;;;;;;;9.00;4.32;;;;;;;;;;5075363;27;20134;-63
2023/05/13 13:39:10;;;;;;;5.68;3.80;;;;;;;;;;5074588;28;20499;-63
2023/05/13 13:41:37;;;;;;;6.07;3.65;;;;;;;;;;5090584;28;20092;-63
2023/05/13 13:44:03;;;;;;;10.18;4.55;;;;;;;;;;5098635;28;20054;-63
2023/05/13 13:46:29;;;;;;;9.63;4.68;;;;;;;;;;5094835;27;20131;-63
2023/05/13 13:48:55;;;;;;;9.20;5.03;;;;;;;;;;5075574;28;20036;-63
2023/05/13 13:51:21;;;;;;;7.32;4.07;;;;;;;;;;5098147;28;20089;-63
2023/05/13 13:53:49;;;;;;;7.00;3.92;;;;;;;;;;5095758;27;20154;-63
2023/05/13 13:56:15;;;;;;;6.65;4.25;;;;;;;;;;5095603;28;20050;-63
2023/05/13 13:58:41;;;;;;;7.13;4.22;;;;;;;;;;5074207;28;20172;-63
2023/05/13 14:01:08;;;;;;;8.43;4.72;;;;;;;;;;5093558;27;20039;-63
2023/05/13 14:03:34;;;;;;;8.63;5.07;;;;;;;;;;5094008;27;20048;-63
2023/05/13 14:06:00;;;;;;;8.40;5.45;;;;;;;;;;5095019;27;20043;-63
2023/05/13 14:08:26;;;;;;;10.52;4.70;;;;;;;;;;5092102;27;20040;-63
2023/05/13 14:10:53;;;;;;;8.18;5.00;;;;;;;;;;5093775;28;20122;-63
2023/05/13 14:13:19;;;;;;;9.50;5.22;;;;;;;;;;5094854;28;20387;-63
2023/05/13 14:15:45;;;;;;;7.55;4.75;;;;;;;;;;5093195;28;20043;-63
2023/05/13 14:18:11;;;;;;;10.80;5.43;;;;;;;;;;5081172;28;20044;-63
2023/05/13 14:20:38;;;;;;;10.77;4.32;;;;;;;;;;5071134;28;20095;-63
2023/05/13 14:23:04;;;;;;;8.30;3.72;;;;;;;;;;5074515;28;20055;-63
2023/05/13 14:25:30;;;;;;;5.93;3.85;;;;;;;;;;5092456;27;20039;-63
2023/05/13 14:27:56;;;;;;;9.77;4.03;;;;;;;;;;5075492;28;20042;-63
2023/05/13 14:30:22;;;;;;;11.10;4.97;;;;;;;;;;5076595;28;20082;-63
2023/05/13 14:32:48;;;;;;;6.70;3.92;;;;;;;;;;5092084;27;20514;-63